Time;durP1;ratioP1;P1;durP2;ratioP2;P2;SDS_P1;SDS_P2;PMS_P1;PMS_P2;Temp;Humidity;BMP_temperature;BMP_pressure;BME280_temperature;BME280_humidity;BME280_pressure;Samples;Min_cycle;Max_cycle;Signal;HPM_P1;HPM_P2
2021/09/26 00:00:56;;;;;;;16.35;8.77;;;;;;;19.06;77.73;98673.41;5053901;28;20029;-49
2021/09/26 00:03:22;;;;;;;11.82;7.32;;;;;;;19.02;78.46;98676.84;5052569;28;20058;-48
2021/09/26 00:05:47;;;;;;;9.60;6.47;;;;;;;18.96;78.90;98684.00;5052452;28;20116;-49
2021/09/26 00:08:13;;;;;;;12.75;7.40;;;;;;;18.91;79.09;98687.44;5052387;28;20025;-49
2021/09/26 00:10:39;;;;;;;14.70;8.50;;;;;;;18.91;79.51;98682.09;5052390;28;20036;-49
2021/09/26 00:13:06;;;;;;;11.88;7.47;;;;;;;18.99;79.42;98661.41;5053608;28;20035;-48
2021/09/26 00:15:31;;;;;;;18.08;12.30;;;;;;;19.12;78.93;98655.66;5053638;28;20403;-48
2021/09/26 00:17:57;;;;;;;16.48;8.27;;;;;;;19.13;78.70;98652.69;5053559;28;20021;-48
2021/09/26 00:20:23;;;;;;;10.98;7.00;;;;;;;19.17;78.56;98645.00;5052196;28;20035;-48
2021/09/26 00:22:50;;;;;;;11.32;6.72;;;;;;;19.18;78.05;98651.94;5053239;28;20116;-48
2021/09/26 00:25:18;;;;;;;10.70;6.88;;;;;;;19.11;78.50;98648.69;5053491;28;20514;-48
2021/09/26 00:27:43;;;;;;;11.25;6.28;;;;;;;19.13;78.53;98651.91;5052067;28;20108;-48
2021/09/26 00:30:13;;;;;;;14.23;7.57;;;;;;;19.19;78.61;98644.75;5051980;28;20120;-48
2021/09/26 00:32:40;;;;;;;12.88;5.97;;;;;;;19.26;78.09;98659.44;5053349;28;20061;-48
2021/09/26 00:35:06;;;;;;;11.38;6.22;;;;;;;19.32;77.76;98670.94;5051963;28;20021;-49
2021/09/26 00:37:31;;;;;;;13.52;6.35;;;;;;;19.28;78.40;98689.25;5053246;28;20025;-48
2021/09/26 00:39:57;;;;;;;7.63;6.22;;;;;;;19.35;78.73;98702.31;5052076;28;20043;-48
2021/09/26 00:42:23;;;;;;;7.95;6.22;;;;;;;19.41;78.60;98713.81;5053109;28;20021;-48
2021/09/26 00:44:49;;;;;;;13.57;6.15;;;;;;;19.45;78.06;98704.25;5053098;28;20104;-48
2021/09/26 00:47:15;;;;;;;9.25;5.97;;;;;;;19.50;77.77;98697.09;5053015;28;20096;-49
2021/09/26 00:49:40;;;;;;;12.90;5.20;;;;;;;19.77;76.38;98701.50;5052132;28;20040;-48
2021/09/26 00:52:06;;;;;;;13.05;6.47;;;;;;;19.84;76.86;98686.09;5052921;28;20482;-49
2021/09/26 00:54:35;;;;;;;13.35;6.40;;;;;;;19.83;77.19;98663.19;5051593;28;20502;-49
2021/09/26 00:57:02;;;;;;;9.75;5.95;;;;;;;19.86;77.18;98643.22;5052795;28;20024;-48
2021/09/26 00:59:28;;;;;;;15.55;7.50;;;;;;;19.82;77.75;98652.78;5051501;28;20017;-48
2021/09/26 01:01:54;;;;;;;9.23;5.95;;;;;;;19.86;77.14;98653.88;5052767;28;20021;-49
2021/09/26 01:04:20;;;;;;;12.25;6.43;;;;;;;19.81;76.92;98627.22;5052700;28;20036;-49
2021/09/26 01:07:16;;;;;;;12.88;7.95;;;;;;;19.75;76.17;98589.13;5052666;28;20506;-48
2021/09/26 01:10:10;;;;;;;15.48;7.90;;;;;;;19.84;75.39;98525.50;5052234;28;20080;-48
2021/09/26 01:12:49;;;;;;;11.32;7.85;;;;;;;19.85;74.24;98575.03;5052540;28;20033;-48
2021/09/26 01:15:51;;;;;;;16.58;12.10;;;;;;;19.56;76.77;98647.34;5052538;28;20033;-48
2021/09/26 01:18:27;;;;;;;15.43;11.02;;;;;;;19.54;79.10;98692.88;5052455;28;20025;-49
2021/09/26 01:21:14;;;;;;;14.80;8.55;;;;;;;19.56;79.45;98685.41;5051098;28;20029;-48
2021/09/26 01:24:21;;;;;;;13.15;9.02;;;;;;;19.75;79.19;98669.81;5050791;28;20060;-48
2021/09/26 01:27:06;;;;;;;14.18;10.13;;;;;;;19.83;77.90;98662.38;5046023;28;20041;-48
2021/09/26 01:29:58;;;;;;;14.02;11.20;;;;;;;19.78;75.14;98617.09;5052248;28;20021;-48
2021/09/26 01:32:24;;;;;;;21.45;9.93;;;;;;;20.00;73.01;98587.56;5046399;28;20041;-48
2021/09/26 01:34:54;;;;;;;15.65;10.27;;;;;;;19.74;73.32;98604.31;5052133;28;20029;-49
2021/09/26 01:37:41;;;;;;;16.80;12.93;;;;;;;19.45;75.56;98635.84;5052124;28;20182;-48
2021/09/26 01:40:09;;;;;;;10.88;9.77;;;;;;;19.34;75.58;98664.28;5052113;28;20032;-49
2021/09/26 01:42:43;;;;;;;11.00;7.78;;;;;;;19.32;75.55;98642.44;5052074;28;20024;-49
2021/09/26 01:45:42;;;;;;;11.60;8.52;;;;;;;19.34;74.34;98650.97;5052318;28;20112;-48
2021/09/26 01:48:15;;;;;;;22.48;10.40;;;;;;;19.42;74.72;98647.03;5051975;28;20060;-48
2021/09/26 01:50:41;;;;;;;13.32;10.27;;;;;;;19.56;75.15;98677.44;5050723;28;20035;-48
2021/09/26 01:53:10;;;;;;;15.27;9.18;;;;;;;19.75;75.52;98682.34;5051979;28;20555;-49
2021/09/26 01:55:36;;;;;;;13.52;10.07;;;;;;;20.00;73.63;98694.94;5052155;28;20028;-48
2021/09/26 01:58:04;;;;;;;10.82;9.43;;;;;;;20.01;72.83;98701.88;5051830;28;20017;-49
2021/09/26 02:00:30;;;;;;;11.27;7.78;;;;;;;20.04;73.58;98741.31;5051697;28;20025;-48
2021/09/26 02:03:00;;;;;;;14.45;8.43;;;;;;;20.81;72.79;98778.06;5050446;28;20089;-49
2021/09/26 02:05:26;;;;;;;12.23;7.57;;;;;;;21.29;70.52;98795.44;5051729;28;20555;-49
2021/09/26 02:07:54;;;;;;;11.00;7.07;;;;;;;21.34;70.81;98789.28;5051653;28;20036;-49
2021/09/26 02:10:23;;;;;;;16.00;6.80;;;;;;;21.61;70.16;98786.34;5051619;28;20029;-49
2021/09/26 02:12:48;;;;;;;13.57;8.85;;;;;;;21.79;71.19;98800.19;5050341;28;20029;-48
2021/09/26 02:15:18;;;;;;;15.73;7.18;;;;;;;21.81;70.99;98812.22;5051631;28;20036;-49
2021/09/26 02:17:46;;;;;;;19.48;8.93;;;;;;;21.87;70.66;98843.19;5051598;28;20032;-49
2021/09/26 02:20:16;;;;;;;16.35;8.35;;;;;;;21.71;70.21;98858.44;5050257;28;20028;-49
2021/09/26 02:22:42;;;;;;;16.02;9.43;;;;;;;21.47;71.13;98863.53;5049940;28;20025;-48
2021/09/26 02:25:09;;;;;;;10.15;8.23;;;;;;;21.26;70.74;98891.25;5051570;28;20040;-48
2021/09/26 02:27:36;;;;;;;18.40;10.73;;;;;;;20.77;72.32;98910.38;5051527;28;20070;-48
2021/09/26 02:30:04;;;;;;;14.63;10.90;;;;;;;20.13;73.87;98925.47;5051459;28;20104;-48
2021/09/26 02:32:30;;;;;;;18.50;10.85;;;;;;;19.50;76.67;98939.34;5051499;28;20041;-48
2021/09/26 02:34:57;;;;;;;13.82;10.10;;;;;;;19.03;77.97;98952.41;5051443;28;20487;-49
2021/09/26 02:37:23;;;;;;;12.70;9.40;;;;;;;18.72;78.78;98991.91;5051451;28;20383;-49
2021/09/26 02:39:50;;;;;;;19.48;12.30;;;;;;;18.34;79.26;98975.72;5050093;28;20108;-48
2021/09/26 02:42:37;;;;;;;12.68;9.52;;;;;;;18.31;80.57;98968.25;5050069;28;20114;-49
2021/09/26 02:45:17;;;;;;;28.10;14.68;;;;;;;18.51;80.96;98949.13;5051394;28;20017;-49
2021/09/26 02:47:55;;;;;;;16.10;11.45;;;;;;;18.64;80.19;98939.97;5051427;28;20407;-48
2021/09/26 02:50:22;;;;;;;19.75;10.80;;;;;;;18.55;79.60;98934.28;5049973;28;20033;-48
2021/09/26 02:52:48;;;;;;;19.40;11.30;;;;;;;18.41;79.88;98902.97;5049937;28;20491;-49
2021/09/26 02:55:15;;;;;;;16.15;11.30;;;;;;;18.20;79.80;98892.09;5051237;28;20021;-49
2021/09/26 02:57:42;;;;;;;22.00;12.80;;;;;;;17.94;80.48;98888.25;5051470;28;20418;-49
2021/09/26 03:00:09;;;;;;;19.13;11.95;;;;;;;17.83;80.98;98884.66;5049893;28;20021;-51
2021/09/26 03:02:35;;;;;;;21.38;12.95;;;;;;;17.74;81.41;98872.81;5049853;28;20078;-51
2021/09/26 03:05:02;;;;;;;12.30;9.93;;;;;;;17.65;81.23;98867.09;5051178;28;20047;-51
2021/09/26 03:07:27;;;;;;;16.25;10.73;;;;;;;17.83;82.36;98838.69;5051225;28;20029;-50
2021/09/26 03:09:53;;;;;;;16.42;9.93;;;;;;;18.05;81.83;98839.56;5049779;28;20044;-50
2021/09/26 03:12:21;;;;;;;13.23;7.13;;;;;;;18.20;81.42;98835.50;5050968;28;20044;-50
2021/09/26 03:14:49;;;;;;;12.30;9.07;;;;;;;17.73;80.19;98844.66;5054777;28;20049;-50
2021/09/26 03:17:16;;;;;;;12.40;9.75;;;;;;;17.15;81.46;98839.50;5053425;28;20036;-50
2021/09/26 03:19:42;;;;;;;22.45;11.45;;;;;;;16.85;82.72;98846.91;5053373;28;20090;-50
2021/09/26 03:22:09;;;;;;;14.32;12.60;;;;;;;16.81;83.68;98841.28;5053306;28;20025;-50
2021/09/26 03:24:36;;;;;;;17.63;10.82;;;;;;;16.84;84.06;98855.91;5052969;28;20118;-50
2021/09/26 03:27:08;;;;;;;19.63;11.25;;;;;;;16.85;83.74;98871.56;5053309;28;20099;-50
2021/09/26 03:29:35;;;;;;;19.77;9.73;;;;;;;16.95;83.37;98877.06;5054485;28;20037;-51
2021/09/26 03:32:02;;;;;;;11.93;8.52;;;;;;;17.04;81.57;98911.16;5053148;28;20027;-51
2021/09/26 03:34:28;;;;;;;15.63;11.30;;;;;;;16.83;82.30;98977.03;5054443;28;20021;-51
2021/09/26 03:36:54;;;;;;;20.58;12.63;;;;;;;16.75;83.17;98987.97;5054377;28;20017;-51
2021/09/26 03:39:19;;;;;;;21.23;13.30;;;;;;;16.79;83.32;98962.59;5054377;28;20501;-51
2021/09/26 03:41:45;;;;;;;15.02;11.60;;;;;;;16.84;83.51;98954.81;5052962;28;20021;-50
2021/09/26 03:44:11;;;;;;;20.55;13.95;;;;;;;16.95;83.29;98953.94;5054253;28;20025;-50
2021/09/26 03:46:36;;;;;;;17.50;11.65;;;;;;;16.97;83.15;98953.72;5052840;28;20029;-51
2021/09/26 03:49:02;;;;;;;12.57;8.02;;;;;;;16.99;82.28;98961.44;5054091;28;20383;-51
2021/09/26 03:51:28;;;;;;;22.63;13.82;;;;;;;16.87;83.09;98974.72;5054050;28;20088;-51
2021/09/26 03:53:54;;;;;;;20.75;14.88;;;;;;;16.81;83.55;98963.22;5052745;28;20431;-50
2021/09/26 03:56:20;;;;;;;23.33;16.38;;;;;;;16.80;83.63;98950.94;5053999;28;20536;-50
2021/09/26 03:58:45;;;;;;;16.88;13.73;;;;;;;16.86;83.53;98928.03;5052609;28;20128;-50
2021/09/26 04:01:12;;;;;;;24.10;14.98;;;;;;;16.95;84.02;98923.97;5053968;28;20025;-49
2021/09/26 04:03:38;;;;;;;22.23;15.55;;;;;;;17.00;84.28;98952.44;5052579;28;20025;-50
2021/09/26 04:06:09;;;;;;;19.58;14.73;;;;;;;17.09;84.46;98945.72;5052506;28;20028;-50
2021/09/26 04:08:36;;;;;;;23.30;14.00;;;;;;;17.18;84.27;98939.00;5053819;28;20029;-50
2021/09/26 04:11:02;;;;;;;13.23;11.02;;;;;;;17.15;83.67;98942.94;5054018;28;20080;-50
2021/09/26 04:13:27;;;;;;;15.68;13.85;;;;;;;17.09;82.49;98927.97;5053776;28;20052;-50
2021/09/26 04:15:53;;;;;;;19.85;14.02;;;;;;;17.06;82.38;98909.06;5053992;28;20017;-50
2021/09/26 04:18:18;;;;;;;21.00;13.40;;;;;;;16.99;82.84;98898.59;5053653;28;20395;-50
2021/09/26 04:20:47;;;;;;;14.15;11.65;;;;;;;16.94;83.60;98880.75;5053604;28;20021;-50
2021/09/26 04:23:12;;;;;;;12.45;8.48;;;;;;;16.99;83.11;98892.50;5052511;28;20041;-50
2021/09/26 04:25:38;;;;;;;14.48;10.15;;;;;;;16.89;82.07;98927.59;5051774;28;20036;-50
2021/09/26 04:28:04;;;;;;;12.65;9.90;;;;;;;16.74;82.61;98941.28;5052035;28;20021;-50
2021/09/26 04:30:30;;;;;;;10.80;7.93;;;;;;;16.66;82.77;98915.97;5053417;28;20032;-50
2021/09/26 04:32:55;;;;;;;9.00;6.40;;;;;;;16.75;81.79;98900.50;5052002;28;20055;-50
2021/09/26 04:35:21;;;;;;;13.68;10.38;;;;;;;16.80;81.66;98874.09;5053289;28;20608;-50
2021/09/26 04:37:47;;;;;;;14.05;9.25;;;;;;;16.80;83.67;98812.31;5053292;28;20025;-49
2021/09/26 04:40:13;;;;;;;16.67;10.30;;;;;;;16.76;84.41;98773.06;5051959;28;20111;-50
2021/09/26 04:42:39;;;;;;;10.70;6.03;;;;;;;16.76;84.39;98761.63;5051973;28;20052;-49
2021/09/26 04:45:08;;;;;;;18.98;15.25;;;;;;;16.64;85.58;98753.75;5053100;28;20017;-50
2021/09/26 04:47:33;;;;;;;16.33;13.32;;;;;;;16.69;85.98;98740.59;5053042;28;20025;-50
2021/09/26 04:49:59;;;;;;;17.77;11.55;;;;;;;16.69;85.09;98735.28;5052939;28;20028;-49
2021/09/26 04:52:25;;;;;;;11.93;8.10;;;;;;;16.53;84.80;98688.38;5052903;28;20518;-49
2021/09/26 04:54:50;;;;;;;16.42;10.35;;;;;;;16.40;85.05;98688.66;5052936;28;20025;-49
2021/09/26 04:57:16;;;;;;;10.85;7.60;;;;;;;16.55;85.43;98755.97;5051535;28;20025;-50
2021/09/26 04:59:42;;;;;;;9.70;5.93;;;;;;;16.57;82.85;98761.84;5052810;28;20025;-49
2021/09/26 05:02:07;;;;;;;12.68;11.38;;;;;;;16.66;84.15;98727.81;5052777;28;20153;-49
2021/09/26 05:04:33;;;;;;;11.25;6.88;;;;;;;16.85;82.54;98754.16;5052709;28;20021;-50
2021/09/26 05:06:59;;;;;;;13.82;7.78;;;;;;;16.90;82.64;98704.66;5051371;28;20032;-50
2021/09/26 05:09:25;;;;;;;11.35;8.68;;;;;;;16.84;83.21;98652.63;5052545;28;20071;-49
2021/09/26 05:11:52;;;;;;;13.68;11.23;;;;;;;16.74;83.66;98686.84;5051239;28;20196;-50
2021/09/26 05:14:18;;;;;;;14.07;8.15;;;;;;;16.80;83.79;98690.41;5052564;28;20048;-49
2021/09/26 05:16:44;;;;;;;12.07;7.35;;;;;;;17.04;83.31;98715.72;5051146;28;20033;-49
2021/09/26 05:19:09;;;;;;;9.77;7.38;;;;;;;17.06;81.35;98721.59;5052456;28;20025;-49
2021/09/26 05:21:36;;;;;;;9.30;7.32;;;;;;;16.95;81.96;98739.19;5051056;28;20403;-49
2021/09/26 05:24:02;;;;;;;15.80;9.48;;;;;;;16.85;82.27;98804.50;5052096;28;20540;-49
2021/09/26 05:26:28;;;;;;;13.68;9.25;;;;;;;16.92;83.49;98842.25;5052263;28;20067;-50
2021/09/26 05:28:54;;;;;;;11.02;8.40;;;;;;;17.04;84.00;98823.66;5052224;28;20017;-49
2021/09/26 05:31:20;;;;;;;12.85;8.02;;;;;;;17.32;83.95;98810.31;5050891;28;20025;-49
2021/09/26 05:33:45;;;;;;;9.55;7.43;;;;;;;17.46;83.06;98823.28;5052191;28;20029;-49
2021/09/26 05:36:14;;;;;;;9.90;7.82;;;;;;;17.37;82.64;98847.56;5051793;28;20021;-49
2021/09/26 05:38:40;;;;;;;43.05;32.90;;;;;;;17.40;82.80;98887.91;5050765;28;20044;-50
2021/09/26 05:41:06;;;;;;;60.85;53.50;;;;;;;17.68;83.90;98884.38;5052034;28;20033;-50
2021/09/26 05:43:31;;;;;;;24.35;20.77;;;;;;;17.75;82.41;98877.88;5050685;28;20487;-49
2021/09/26 05:45:57;;;;;;;15.70;12.10;;;;;;;17.75;82.50;98880.53;5050712;28;20391;-50
2021/09/26 05:48:23;;;;;;;50.38;37.67;;;;;;;17.65;82.33;98890.19;5051880;28;20075;-50
2021/09/26 05:50:48;;;;;;;11.82;10.23;;;;;;;17.89;83.68;98874.94;5052207;28;20495;-49
2021/09/26 05:53:14;;;;;;;21.10;13.05;;;;;;;17.95;82.65;98866.00;5051875;28;20032;-49
2021/09/26 05:55:40;;;;;;;22.20;15.13;;;;;;;18.11;83.60;98899.69;5050515;28;20033;-50
2021/09/26 05:58:05;;;;;;;14.32;8.90;;;;;;;18.20;82.80;98918.66;5051884;28;20494;-50
2021/09/26 06:00:31;;;;;;;14.70;10.82;;;;;;;18.17;82.60;98901.34;5050706;28;20086;-50
2021/09/26 06:02:57;;;;;;;22.65;15.00;;;;;;;18.33;83.37;98896.22;5051810;28;20021;-50
2021/09/26 06:05:23;;;;;;;12.80;8.25;;;;;;;18.38;82.32;98887.53;5050459;28;20088;-50
2021/09/26 06:07:49;;;;;;;21.13;13.77;;;;;;;18.22;83.19;98865.28;5051990;28;20021;-50
2021/09/26 06:10:15;;;;;;;19.02;11.65;;;;;;;18.61;84.30;98870.53;5051578;28;20017;-50
2021/09/26 06:12:41;;;;;;;20.63;8.85;;;;;;;18.70;82.84;98893.00;5051707;28;20025;-50
2021/09/26 06:15:07;;;;;;;14.93;8.95;;;;;;;18.45;82.36;98894.28;5051657;28;20021;-50
2021/09/26 06:17:33;;;;;;;106.57;83.38;;;;;;;18.26;82.86;98930.16;5050285;28;20028;-50
2021/09/26 06:20:00;;;;;;;98.63;75.65;;;;;;;18.02;83.19;98940.16;5050303;28;20029;-50
2021/09/26 06:22:26;;;;;;;105.35;91.18;;;;;;;17.90;83.61;98919.00;5051367;28;20025;-50
2021/09/26 06:24:53;;;;;;;294.98;262.83;;;;;;;17.86;83.43;98926.66;5051481;28;20109;-50
2021/09/26 06:27:22;;;;;;;57.40;51.70;;;;;;;18.12;84.26;98943.78;5051559;28;20025;-49
2021/09/26 06:29:48;;;;;;;18.42;10.75;;;;;;;18.32;83.57;98945.13;5051502;28;20021;-50
2021/09/26 06:32:14;;;;;;;12.80;7.97;;;;;;;18.20;83.19;98947.88;5050191;28;20082;-50
2021/09/26 06:34:40;;;;;;;26.55;15.45;;;;;;;17.91;82.64;98933.91;5050192;28;20032;-49
2021/09/26 06:37:05;;;;;;;22.92;14.52;;;;;;;17.95;83.79;98929.72;5050198;28;20032;-50
2021/09/26 06:39:33;;;;;;;26.85;13.27;;;;;;;18.20;84.62;98889.44;5051487;28;20029;-50
2021/09/26 06:41:59;;;;;;;15.40;10.00;;;;;;;18.46;83.98;98890.56;5051476;28;20056;-50
2021/09/26 06:44:25;;;;;;;11.75;9.52;;;;;;;18.32;82.29;98913.25;5050136;28;20025;-50
2021/09/26 06:46:50;;;;;;;15.73;10.27;;;;;;;18.01;82.36;98919.94;5051918;28;20029;-50
2021/09/26 06:49:16;;;;;;;13.23;9.60;;;;;;;17.87;82.99;98915.00;5053900;28;20021;-50
2021/09/26 06:51:42;;;;;;;60.83;54.45;;;;;;;17.86;84.26;98899.31;5055208;28;20399;-50
2021/09/26 06:54:08;;;;;;;13.88;10.45;;;;;;;18.05;84.20;98887.38;5055230;28;20032;-50
2021/09/26 06:56:33;;;;;;;42.42;38.10;;;;;;;18.00;83.25;98879.31;5055123;28;20109;-50
2021/09/26 06:58:59;;;;;;;16.23;10.10;;;;;;;17.99;83.36;98875.06;5055143;28;20494;-50
2021/09/26 07:01:25;;;;;;;20.90;18.55;;;;;;;17.69;81.38;98872.75;5055070;28;20052;-50
2021/09/26 07:03:51;;;;;;;10.95;9.80;;;;;;;17.20;82.30;98872.44;5055041;28;20047;-50
2021/09/26 07:06:16;;;;;;;16.67;10.27;;;;;;;16.92;82.85;98876.72;5055197;28;20029;-50
2021/09/26 07:08:42;;;;;;;14.68;10.70;;;;;;;16.74;83.14;98878.50;5054815;28;20028;-49
2021/09/26 07:11:08;;;;;;;21.90;16.75;;;;;;;16.64;83.63;98890.72;5054890;28;20021;-50
2021/09/26 07:13:34;;;;;;;16.88;9.98;;;;;;;17.05;84.82;98912.78;5054873;28;20028;-50
2021/09/26 07:16:00;;;;;;;15.52;12.70;;;;;;;17.28;84.27;98931.22;5054867;28;20031;-50
2021/09/26 07:18:25;;;;;;;18.10;14.32;;;;;;;17.52;83.06;98950.47;5054759;28;20024;-50
2021/09/26 07:20:51;;;;;;;13.23;9.23;;;;;;;17.63;82.38;98977.22;5054746;28;20100;-50
2021/09/26 07:23:17;;;;;;;14.05;11.90;;;;;;;17.55;81.76;98960.63;5054428;28;20045;-50
2021/09/26 07:25:43;;;;;;;16.60;13.73;;;;;;;17.64;82.54;98934.50;5054633;28;20455;-50
2021/09/26 07:28:08;;;;;;;13.23;8.00;;;;;;;17.88;81.65;98939.69;5054538;28;20028;-50
2021/09/26 07:30:34;;;;;;;10.30;8.32;;;;;;;18.04;81.86;98949.50;5053169;28;20384;-50
2021/09/26 07:33:00;;;;;;;11.85;8.32;;;;;;;18.32;80.98;98958.41;5054502;28;20052;-50
2021/09/26 07:35:26;;;;;;;12.65;7.07;;;;;;;18.49;80.74;98963.69;5054426;28;20040;-50
2021/09/26 07:37:52;;;;;;;10.27;7.82;;;;;;;18.75;79.79;98963.00;5052924;28;20091;-50
2021/09/26 07:40:17;;;;;;;16.23;7.32;;;;;;;18.69;78.10;98985.25;5054296;28;20032;-50
2021/09/26 07:42:43;;;;;;;16.77;11.75;;;;;;;18.60;78.26;98985.91;5054312;28;20021;-50
2021/09/26 07:45:12;;;;;;;8.30;6.72;;;;;;;18.81;78.68;98973.69;5052878;28;20111;-50
2021/09/26 07:47:39;;;;;;;9.77;7.80;;;;;;;18.76;76.87;98974.41;5054194;28;20017;-50
2021/09/26 07:50:05;;;;;;;11.52;7.78;;;;;;;18.60;77.39;98989.38;5053984;28;20032;-49
2021/09/26 07:52:31;;;;;;;8.93;7.65;;;;;;;18.43;77.64;98994.72;5054090;28;20391;-50
2021/09/26 07:54:57;;;;;;;14.25;9.27;;;;;;;18.36;78.35;99004.69;5054095;28;20054;-50
2021/09/26 07:57:24;;;;;;;14.23;9.52;;;;;;;18.52;78.78;99006.53;5053973;28;20059;-49
2021/09/26 07:59:51;;;;;;;24.35;17.52;;;;;;;18.91;78.53;98995.94;5053862;28;20025;-50
2021/09/26 08:02:18;;;;;;;10.43;9.40;;;;;;;19.06;76.96;98986.53;5053968;28;20048;-50
2021/09/26 08:04:43;;;;;;;10.85;8.70;;;;;;;18.48;76.29;98983.34;5053846;28;20017;-49
2021/09/26 08:07:09;;;;;;;14.02;10.43;;;;;;;18.05;78.07;98968.88;5053829;28;20040;-50
2021/09/26 08:09:35;;;;;;;12.13;8.95;;;;;;;18.18;78.58;98965.91;5052406;28;20031;-50
2021/09/26 08:12:03;;;;;;;11.98;9.63;;;;;;;17.95;77.94;98958.94;5053807;28;20553;-49
2021/09/26 08:14:29;;;;;;;13.43;10.20;;;;;;;17.75;78.93;98956.72;5053722;28;20017;-50
2021/09/26 08:16:55;;;;;;;17.05;10.18;;;;;;;17.73;79.40;98942.88;5053678;28;20502;-50
2021/09/26 08:19:22;;;;;;;14.93;11.30;;;;;;;17.77;80.19;98926.22;5052579;28;20033;-50
2021/09/26 08:21:50;;;;;;;10.55;8.05;;;;;;;18.35;80.24;98912.72;5053537;28;20021;-50
2021/09/26 08:24:16;;;;;;;10.82;9.10;;;;;;;18.62;78.55;98907.50;5053263;28;20041;-50
2021/09/26 08:26:42;;;;;;;10.52;9.35;;;;;;;18.66;78.29;98913.94;5053461;28;20391;-49
2021/09/26 08:29:08;;;;;;;11.30;8.75;;;;;;;18.80;78.16;98922.38;5052039;28;20071;-49
2021/09/26 08:31:33;;;;;;;16.48;10.23;;;;;;;19.16;77.68;98934.22;5052080;28;20033;-50
2021/09/26 08:33:59;;;;;;;23.52;10.48;;;;;;;19.68;76.79;98935.50;5052057;28;20103;-50
2021/09/26 08:36:25;;;;;;;10.73;8.07;;;;;;;20.09;74.90;98940.38;5053271;28;20025;-50
2021/09/26 08:38:51;;;;;;;13.98;10.10;;;;;;;20.10;72.99;98941.94;5053248;28;20032;-50
2021/09/26 08:41:17;;;;;;;11.68;8.48;;;;;;;20.00;72.33;98945.38;5053155;28;20024;-50
2021/09/26 08:43:47;;;;;;;10.90;8.90;;;;;;;19.83;72.82;98960.69;5053143;28;20098;-50
2021/09/26 08:46:17;;;;;;;11.00;8.85;;;;;;;19.94;73.26;98957.03;5053324;28;20104;-50
2021/09/26 08:48:44;;;;;;;16.85;11.73;;;;;;;19.96;72.90;98957.59;5053014;28;20110;-50
2021/09/26 08:51:11;;;;;;;14.60;11.02;;;;;;;19.91;73.39;98968.19;5052938;28;20021;-50
2021/09/26 08:53:37;;;;;;;15.45;10.68;;;;;;;19.96;73.41;98960.25;5052937;28;20021;-50
2021/09/26 08:56:03;;;;;;;11.90;10.68;;;;;;;19.83;72.53;98963.34;5052929;28;20025;-50
2021/09/26 08:58:29;;;;;;;12.50;10.80;;;;;;;19.43;72.95;98957.38;5051692;28;20032;-50
2021/09/26 09:00:55;;;;;;;14.95;11.02;;;;;;;19.15;73.21;98951.22;5052835;28;20031;-50
2021/09/26 09:03:21;;;;;;;12.90;9.30;;;;;;;18.99;73.54;98957.44;5052770;28;20106;-50
2021/09/26 09:05:54;;;;;;;21.70;19.45;;;;;;;18.82;73.92;98957.50;5052724;28;20033;-49
2021/09/26 09:08:22;;;;;;;11.73;10.52;;;;;;;18.82;74.97;98968.16;5052600;28;20028;-49
2021/09/26 09:10:52;;;;;;;11.95;10.55;;;;;;;18.86;74.43;98974.56;5051976;28;20372;-50
2021/09/26 09:13:30;;;;;;;10.40;9.30;;;;;;;18.84;74.16;98975.88;5052553;28;20029;-50
2021/09/26 09:16:02;;;;;;;19.42;13.77;;;;;;;18.97;74.88;98972.84;5052533;28;20110;-50
2021/09/26 09:18:51;;;;;;;15.10;11.00;;;;;;;19.19;74.29;98970.16;5052528;28;20028;-50
2021/09/26 09:21:29;;;;;;;9.98;9.07;;;;;;;19.75;73.02;98965.41;5052430;28;20403;-50
2021/09/26 09:24:25;;;;;;;17.35;11.23;;;;;;;20.40;71.63;98965.34;5050895;28;20099;-50
2021/09/26 09:26:52;;;;;;;11.20;8.55;;;;;;;20.61;69.80;98971.63;5052314;28;20025;-50
2021/09/26 09:29:23;;;;;;;12.73;9.27;;;;;;;20.54;70.14;98973.69;5052239;28;20442;-50
2021/09/26 09:31:58;;;;;;;13.13;9.40;;;;;;;20.73;69.76;98977.56;5052337;28;20029;-50
2021/09/26 09:34:30;;;;;;;11.30;10.18;;;;;;;20.92;69.33;98990.44;5052250;28;20455;-50
2021/09/26 09:37:20;;;;;;;14.98;9.63;;;;;;;21.02;68.37;98992.34;5052226;28;20079;-50
2021/09/26 09:40:15;;;;;;;11.18;8.70;;;;;;;20.67;68.47;98986.59;5050927;28;20043;-50
2021/09/26 09:42:53;;;;;;;9.95;8.63;;;;;;;20.37;69.41;98965.88;5052044;28;20032;-50
2021/09/26 09:45:35;;;;;;;10.05;8.75;;;;;;;20.30;69.19;98958.09;5052030;28;20022;-50
2021/09/26 09:48:11;;;;;;;10.07;8.82;;;;;;;20.27;69.29;98961.25;5050661;28;20029;-51
2021/09/26 09:51:05;;;;;;;11.93;9.77;;;;;;;20.24;69.19;98951.13;5051961;28;20032;-50
2021/09/26 09:53:34;;;;;;;13.98;8.75;;;;;;;20.35;68.24;98946.66;5051587;28;20114;-50
2021/09/26 09:55:59;;;;;;;17.50;11.10;;;;;;;20.43;68.61;98951.50;5052157;28;20391;-51
2021/09/26 09:58:25;;;;;;;17.40;11.57;;;;;;;20.76;69.26;98938.88;5050540;28;20032;-50
2021/09/26 10:00:56;;;;;;;12.30;7.88;;;;;;;21.79;66.25;98929.22;5052151;28;20021;-51
2021/09/26 10:03:39;;;;;;;11.80;7.85;;;;;;;22.61;62.21;98937.09;5051817;28;20427;-49
2021/09/26 10:06:25;;;;;;;8.18;7.40;;;;;;;22.69;60.48;98930.41;5050513;28;20406;-48
2021/09/26 10:08:53;;;;;;;18.60;9.95;;;;;;;22.52;61.39;98928.84;5051763;28;20040;-48
2021/09/26 10:11:19;;;;;;;14.90;9.60;;;;;;;22.81;59.86;98919.38;5050392;28;20029;-49
2021/09/26 10:13:47;;;;;;;15.15;8.80;;;;;;;23.15;59.37;98924.84;5051735;28;20556;-49
2021/09/26 10:16:13;;;;;;;15.75;10.38;;;;;;;23.64;57.78;98928.50;5051620;28;20063;-49
2021/09/26 10:18:42;;;;;;;10.60;8.88;;;;;;;24.68;55.29;98924.59;5050290;28;20033;-49
2021/09/26 10:21:10;;;;;;;7.50;6.75;;;;;;;25.84;50.57;98930.47;5052644;28;20024;-49
2021/09/26 10:23:36;;;;;;;8.70;7.90;;;;;;;25.96;48.33;98922.75;5055469;28;20068;-48
2021/09/26 10:26:02;;;;;;;12.55;7.80;;;;;;;25.99;48.71;98929.41;5054428;28;20029;-49
2021/09/26 10:28:30;;;;;;;13.63;9.68;;;;;;;26.73;47.37;98925.88;5055620;28;20100;-48
2021/09/26 10:31:00;;;;;;;8.07;7.28;;;;;;;27.20;45.88;98913.00;5054299;28;20025;-49
2021/09/26 10:33:30;;;;;;;16.65;10.93;;;;;;;27.33;46.18;98912.19;5055840;28;20025;-49
2021/09/26 10:35:58;;;;;;;8.88;7.28;;;;;;;28.14;43.00;98915.88;5054288;28;20025;-49
2021/09/26 10:38:25;;;;;;;7.38;6.72;;;;;;;27.89;42.78;98927.03;5055523;28;20021;-51
2021/09/26 10:40:51;;;;;;;8.95;8.02;;;;;;;27.99;42.83;98923.28;5055467;28;20056;-51
2021/09/26 10:43:30;;;;;;;8.98;7.70;;;;;;;27.97;43.04;98928.19;5054136;28;20056;-51
2021/09/26 10:46:27;;;;;;;9.55;8.65;;;;;;;27.94;42.18;98928.78;5055410;28;20118;-51
2021/09/26 10:49:15;;;;;;;9.25;7.00;;;;;;;27.49;42.79;98918.03;5050712;28;20033;-51
2021/09/26 10:51:54;;;;;;;8.70;7.88;;;;;;;26.63;45.05;98918.81;5054024;28;20036;-50
2021/09/26 10:54:23;;;;;;;9.68;7.75;;;;;;;26.15;45.76;98921.88;5055292;28;20100;-50
2021/09/26 10:56:50;;;;;;;7.97;7.18;;;;;;;26.06;46.75;98930.63;5053853;28;20028;-48
2021/09/26 10:59:15;;;;;;;9.20;7.93;;;;;;;26.08;46.63;98924.97;5053804;28;20029;-49
2021/09/26 11:01:41;;;;;;;11.25;8.75;;;;;;;25.84;47.08;98925.09;5055051;28;20025;-49
2021/09/26 11:04:14;;;;;;;9.05;7.72;;;;;;;25.79;46.98;98914.41;5055051;28;20020;-48
2021/09/26 11:06:43;;;;;;;9.23;7.50;;;;;;;25.96;47.00;98905.78;5055003;28;20074;-49
2021/09/26 11:09:09;;;;;;;23.02;15.95;;;;;;;26.23;46.63;98905.81;5054910;28;20072;-49
2021/09/26 11:11:48;;;;;;;13.88;10.45;;;;;;;26.56;45.42;98894.97;5054899;28;20078;-49
2021/09/26 11:14:16;;;;;;;10.98;8.13;;;;;;;26.66;44.75;98894.78;5054903;28;20040;-48
2021/09/26 11:16:59;;;;;;;10.52;7.82;;;;;;;26.82;44.67;98886.38;5053609;28;20029;-49
2021/09/26 11:19:28;;;;;;;10.80;7.68;;;;;;;26.96;43.54;98895.19;5053538;28;20036;-48
2021/09/26 11:22:03;;;;;;;10.45;8.38;;;;;;;27.19;43.76;98896.03;5054751;28;20021;-48
2021/09/26 11:24:42;;;;;;;9.40;8.27;;;;;;;27.42;43.59;98898.78;5054334;28;20498;-49
2021/09/26 11:27:30;;;;;;;9.30;8.50;;;;;;;27.28;43.11;98899.59;5054675;28;20025;-49
2021/09/26 11:30:01;;;;;;;9.63;8.57;;;;;;;27.04;44.17;98899.88;5054625;28;20025;-48